sensor_id;sensor_type;location;lat;lon;timestamp;P1;durP1;ratioP1;P2;durP2;ratioP2
10005;SDS011;5042;42.626;23.382;2023-02-10T00:01:54;8.23;;;5.17;;
10005;SDS011;5042;42.626;23.382;2023-02-10T00:04:22;5.77;;;4.80;;
10005;SDS011;5042;42.626;23.382;2023-02-10T00:06:49;9.10;;;5.97;;
10005;SDS011;5042;42.626;23.382;2023-02-10T00:09:15;11.33;;;7.07;;
10005;SDS011;5042;42.626;23.382;2023-02-10T00:11:42;5.97;;;5.20;;
10005;SDS011;5042;42.626;23.382;2023-02-10T00:14:25;6.87;;;4.53;;
10005;SDS011;5042;42.626;23.382;2023-02-10T00:16:52;7.40;;;5.63;;
10005;SDS011;5042;42.626;23.382;2023-02-10T00:19:20;6.30;;;4.40;;
10005;SDS011;5042;42.626;23.382;2023-02-10T00:21:49;6.83;;;5.13;;
10005;SDS011;5042;42.626;23.382;2023-02-10T00:24:16;7.23;;;4.30;;
10005;SDS011;5042;42.626;23.382;2023-02-10T00:26:43;5.40;;;3.20;;
10005;SDS011;5042;42.626;23.382;2023-02-10T00:29:10;3.07;;;2.73;;
10005;SDS011;5042;42.626;23.382;2023-02-10T00:31:38;2.40;;;2.30;;
10005;SDS011;5042;42.626;23.382;2023-02-10T00:34:05;3.53;;;3.23;;
10005;SDS011;5042;42.626;23.382;2023-02-10T00:36:33;4.10;;;3.27;;
10005;SDS011;5042;42.626;23.382;2023-02-10T00:38:59;5.07;;;3.10;;
10005;SDS011;5042;42.626;23.382;2023-02-10T00:41:26;6.97;;;4.33;;
10005;SDS011;5042;42.626;23.382;2023-02-10T00:43:53;3.03;;;2.77;;
10005;SDS011;5042;42.626;23.382;2023-02-10T00:46:20;3.77;;;3.33;;
10005;SDS011;5042;42.626;23.382;2023-02-10T00:48:48;3.23;;;2.73;;
10005;SDS011;5042;42.626;23.382;2023-02-10T00:51:15;6.23;;;3.40;;
10005;SDS011;5042;42.626;23.382;2023-02-10T00:53:44;4.97;;;4.13;;
10005;SDS011;5042;42.626;23.382;2023-02-10T00:56:13;4.37;;;3.00;;
10005;SDS011;5042;42.626;23.382;2023-02-10T00:58:40;5.80;;;4.33;;
10005;SDS011;5042;42.626;23.382;2023-02-10T01:01:06;5.57;;;3.60;;
10005;SDS011;5042;42.626;23.382;2023-02-10T01:03:33;3.60;;;2.97;;
10005;SDS011;5042;42.626;23.382;2023-02-10T01:06:00;2.87;;;2.40;;
10005;SDS011;5042;42.626;23.382;2023-02-10T01:08:27;3.30;;;2.87;;
10005;SDS011;5042;42.626;23.382;2023-02-10T01:11:00;2.77;;;2.40;;
10005;SDS011;5042;42.626;23.382;2023-02-10T01:13:27;4.63;;;3.67;;
10005;SDS011;5042;42.626;23.382;2023-02-10T01:15:54;3.77;;;3.10;;
10005;SDS011;5042;42.626;23.382;2023-02-10T01:18:21;5.50;;;3.90;;
10005;SDS011;5042;42.626;23.382;2023-02-10T01:20:48;3.17;;;2.53;;
10005;SDS011;5042;42.626;23.382;2023-02-10T01:23:15;7.67;;;2.57;;
10005;SDS011;5042;42.626;23.382;2023-02-10T01:25:42;2.03;;;1.90;;
10005;SDS011;5042;42.626;23.382;2023-02-10T01:28:10;5.87;;;2.53;;
10005;SDS011;5042;42.626;23.382;2023-02-10T01:30:37;3.43;;;3.13;;
10005;SDS011;5042;42.626;23.382;2023-02-10T01:33:03;8.37;;;2.83;;
10005;SDS011;5042;42.626;23.382;2023-02-10T01:35:30;4.27;;;2.70;;
10005;SDS011;5042;42.626;23.382;2023-02-10T01:37:57;2.80;;;2.60;;
10005;SDS011;5042;42.626;23.382;2023-02-10T01:40:25;3.27;;;2.97;;
10005;SDS011;5042;42.626;23.382;2023-02-10T01:42:52;5.23;;;3.00;;
10005;SDS011;5042;42.626;23.382;2023-02-10T01:45:20;4.40;;;3.20;;
10005;SDS011;5042;42.626;23.382;2023-02-10T01:47:52;7.90;;;3.73;;
10005;SDS011;5042;42.626;23.382;2023-02-10T01:50:23;2.73;;;2.53;;
10005;SDS011;5042;42.626;23.382;2023-02-10T01:52:52;2.97;;;2.47;;
10005;SDS011;5042;42.626;23.382;2023-02-10T01:55:20;2.37;;;1.73;;
10005;SDS011;5042;42.626;23.382;2023-02-10T01:57:51;3.50;;;2.50;;
10005;SDS011;5042;42.626;23.382;2023-02-10T02:00:21;3.10;;;2.17;;
10005;SDS011;5042;42.626;23.382;2023-02-10T02:02:50;3.57;;;3.10;;
10005;SDS011;5042;42.626;23.382;2023-02-10T02:05:18;4.73;;;2.90;;
10005;SDS011;5042;42.626;23.382;2023-02-10T02:07:48;5.17;;;3.27;;
10005;SDS011;5042;42.626;23.382;2023-02-10T02:10:15;4.80;;;4.30;;
10005;SDS011;5042;42.626;23.382;2023-02-10T02:12:45;5.47;;;3.03;;
10005;SDS011;5042;42.626;23.382;2023-02-10T02:15:20;3.67;;;3.07;;
10005;SDS011;5042;42.626;23.382;2023-02-10T02:17:54;2.70;;;2.50;;
10005;SDS011;5042;42.626;23.382;2023-02-10T02:26:36;3.03;;;2.77;;
10005;SDS011;5042;42.626;23.382;2023-02-10T02:32:11;4.93;;;3.50;;
10005;SDS011;5042;42.626;23.382;2023-02-10T02:34:42;2.10;;;1.73;;
10005;SDS011;5042;42.626;23.382;2023-02-10T02:37:16;3.50;;;2.57;;
10005;SDS011;5042;42.626;23.382;2023-02-10T02:39:48;3.40;;;2.27;;
10005;SDS011;5042;42.626;23.382;2023-02-10T02:42:17;3.13;;;2.83;;
10005;SDS011;5042;42.626;23.382;2023-02-10T02:44:46;3.33;;;2.60;;
10005;SDS011;5042;42.626;23.382;2023-02-10T02:47:34;3.87;;;3.53;;
10005;SDS011;5042;42.626;23.382;2023-02-10T02:50:15;2.97;;;2.77;;
10005;SDS011;5042;42.626;23.382;2023-02-10T02:52:52;4.03;;;2.20;;
10005;SDS011;5042;42.626;23.382;2023-02-10T02:55:31;2.40;;;2.20;;
10005;SDS011;5042;42.626;23.382;2023-02-10T02:58:09;3.47;;;3.17;;
10005;SDS011;5042;42.626;23.382;2023-02-10T03:00:40;5.93;;;3.67;;
10005;SDS011;5042;42.626;23.382;2023-02-10T03:03:10;2.93;;;2.70;;
10005;SDS011;5042;42.626;23.382;2023-02-10T03:05:37;5.40;;;3.77;;
10005;SDS011;5042;42.626;23.382;2023-02-10T03:08:04;3.07;;;2.87;;
10005;SDS011;5042;42.626;23.382;2023-02-10T03:10:31;6.57;;;3.83;;
10005;SDS011;5042;42.626;23.382;2023-02-10T03:12:58;3.27;;;2.97;;
10005;SDS011;5042;42.626;23.382;2023-02-10T03:15:24;6.07;;;3.20;;
10005;SDS011;5042;42.626;23.382;2023-02-10T03:17:51;4.50;;;3.73;;
10005;SDS011;5042;42.626;23.382;2023-02-10T03:20:19;6.40;;;3.93;;
10005;SDS011;5042;42.626;23.382;2023-02-10T03:22:46;5.20;;;3.93;;
10005;SDS011;5042;42.626;23.382;2023-02-10T03:25:13;5.27;;;3.60;;
10005;SDS011;5042;42.626;23.382;2023-02-10T03:27:39;7.07;;;3.13;;
10005;SDS011;5042;42.626;23.382;2023-02-10T03:30:07;6.20;;;4.57;;
10005;SDS011;5042;42.626;23.382;2023-02-10T03:32:34;12.63;;;5.20;;
10005;SDS011;5042;42.626;23.382;2023-02-10T03:35:01;5.47;;;4.43;;
10005;SDS011;5042;42.626;23.382;2023-02-10T03:37:29;8.23;;;5.57;;
10005;SDS011;5042;42.626;23.382;2023-02-10T03:39:56;5.00;;;4.10;;
10005;SDS011;5042;42.626;23.382;2023-02-10T03:42:22;7.00;;;5.27;;
10005;SDS011;5042;42.626;23.382;2023-02-10T03:44:49;6.73;;;5.27;;
10005;SDS011;5042;42.626;23.382;2023-02-10T03:47:16;5.70;;;5.20;;
10005;SDS011;5042;42.626;23.382;2023-02-10T03:49:43;8.17;;;5.63;;
10005;SDS011;5042;42.626;23.382;2023-02-10T03:52:09;8.03;;;6.10;;
10005;SDS011;5042;42.626;23.382;2023-02-10T03:54:37;10.07;;;5.53;;
10005;SDS011;5042;42.626;23.382;2023-02-10T03:57:04;6.80;;;4.77;;
10005;SDS011;5042;42.626;23.382;2023-02-10T03:59:31;9.77;;;6.33;;
10005;SDS011;5042;42.626;23.382;2023-02-10T04:01:58;6.57;;;5.30;;
10005;SDS011;5042;42.626;23.382;2023-02-10T04:04:25;6.80;;;5.53;;
10005;SDS011;5042;42.626;23.382;2023-02-10T04:06:51;9.13;;;6.70;;
10005;SDS011;5042;42.626;23.382;2023-02-10T04:09:18;15.13;;;7.93;;
10005;SDS011;5042;42.626;23.382;2023-02-10T04:11:46;10.90;;;7.00;;
10005;SDS011;5042;42.626;23.382;2023-02-10T04:14:13;11.80;;;5.57;;
10005;SDS011;5042;42.626;23.382;2023-02-10T04:16:40;10.30;;;6.67;;
10005;SDS011;5042;42.626;23.382;2023-02-10T04:19:07;11.80;;;7.60;;
10005;SDS011;5042;42.626;23.382;2023-02-10T04:21:34;6.17;;;4.90;;
10005;SDS011;5042;42.626;23.382;2023-02-10T04:24:00;11.43;;;8.27;;
10005;SDS011;5042;42.626;23.382;2023-02-10T04:26:27;8.17;;;6.33;;
10005;SDS011;5042;42.626;23.382;2023-02-10T04:28:55;5.83;;;4.67;;
10005;SDS011;5042;42.626;23.382;2023-02-10T04:31:22;7.67;;;4.40;;
10005;SDS011;5042;42.626;23.382;2023-02-10T04:33:49;7.13;;;5.40;;
10005;SDS011;5042;42.626;23.382;2023-02-10T04:36:16;7.27;;;4.80;;
10005;SDS011;5042;42.626;23.382;2023-02-10T04:38:42;4.40;;;3.93;;
10005;SDS011;5042;42.626;23.382;2023-02-10T04:41:09;5.33;;;4.83;;
10005;SDS011;5042;42.626;23.382;2023-02-10T04:43:36;9.03;;;5.40;;
10005;SDS011;5042;42.626;23.382;2023-02-10T04:46:04;6.50;;;4.27;;
10005;SDS011;5042;42.626;23.382;2023-02-10T04:48:31;5.60;;;4.27;;
10005;SDS011;5042;42.626;23.382;2023-02-10T04:50:57;5.13;;;2.70;;
10005;SDS011;5042;42.626;23.382;2023-02-10T04:53:24;3.83;;;3.53;;
10005;SDS011;5042;42.626;23.382;2023-02-10T04:55:51;5.77;;;3.57;;
10005;SDS011;5042;42.626;23.382;2023-02-10T04:58:18;4.40;;;3.80;;
10005;SDS011;5042;42.626;23.382;2023-02-10T05:00:46;8.37;;;4.70;;
10005;SDS011;5042;42.626;23.382;2023-02-10T05:03:14;7.10;;;3.77;;
10005;SDS011;5042;42.626;23.382;2023-02-10T05:05:41;4.47;;;4.03;;
10005;SDS011;5042;42.626;23.382;2023-02-10T05:08:08;4.10;;;2.70;;
10005;SDS011;5042;42.626;23.382;2023-02-10T05:10:35;3.37;;;3.07;;
10005;SDS011;5042;42.626;23.382;2023-02-10T05:13:01;5.50;;;2.83;;
10005;SDS011;5042;42.626;23.382;2023-02-10T05:15:29;6.97;;;4.27;;
10005;SDS011;5042;42.626;23.382;2023-02-10T05:17:56;4.57;;;4.27;;
10005;SDS011;5042;42.626;23.382;2023-02-10T05:20:24;2.63;;;2.43;;
10005;SDS011;5042;42.626;23.382;2023-02-10T05:22:51;1.60;;;1.50;;
10005;SDS011;5042;42.626;23.382;2023-02-10T05:25:18;2.33;;;2.13;;
10005;SDS011;5042;42.626;23.382;2023-02-10T05:27:44;3.27;;;3.03;;
10005;SDS011;5042;42.626;23.382;2023-02-10T05:30:11;2.47;;;2.27;;
10005;SDS011;5042;42.626;23.382;2023-02-10T05:32:39;7.33;;;4.17;;
10005;SDS011;5042;42.626;23.382;2023-02-10T05:35:06;6.80;;;5.20;;
10005;SDS011;5042;42.626;23.382;2023-02-10T05:37:35;6.70;;;4.97;;
10005;SDS011;5042;42.626;23.382;2023-02-10T05:40:02;6.53;;;4.60;;
10005;SDS011;5042;42.626;23.382;2023-02-10T05:42:29;1.80;;;1.77;;
10005;SDS011;5042;42.626;23.382;2023-02-10T05:44:56;3.93;;;3.57;;
10005;SDS011;5042;42.626;23.382;2023-02-10T05:47:22;6.80;;;4.70;;
10005;SDS011;5042;42.626;23.382;2023-02-10T05:49:50;4.93;;;4.47;;
10005;SDS011;5042;42.626;23.382;2023-02-10T05:52:16;4.40;;;4.00;;
10005;SDS011;5042;42.626;23.382;2023-02-10T05:54:45;3.57;;;3.27;;
10005;SDS011;5042;42.626;23.382;2023-02-10T05:57:11;6.67;;;5.23;;
10005;SDS011;5042;42.626;23.382;2023-02-10T05:59:38;5.57;;;3.63;;
10005;SDS011;5042;42.626;23.382;2023-02-10T06:02:06;3.00;;;2.80;;
10005;SDS011;5042;42.626;23.382;2023-02-10T06:04:33;5.93;;;3.93;;
10005;SDS011;5042;42.626;23.382;2023-02-10T06:07:00;1.83;;;1.73;;
10005;SDS011;5042;42.626;23.382;2023-02-10T06:09:26;3.60;;;3.10;;
10005;SDS011;5042;42.626;23.382;2023-02-10T06:11:54;11.90;;;5.57;;
10005;SDS011;5042;42.626;23.382;2023-02-10T06:14:21;10.17;;;4.10;;
10005;SDS011;5042;42.626;23.382;2023-02-10T06:16:48;5.20;;;4.43;;
10005;SDS011;5042;42.626;23.382;2023-02-10T06:19:15;12.60;;;6.73;;
10005;SDS011;5042;42.626;23.382;2023-02-10T06:21:42;9.67;;;6.77;;
10005;SDS011;5042;42.626;23.382;2023-02-10T06:24:08;10.07;;;8.37;;
10005;SDS011;5042;42.626;23.382;2023-02-10T06:26:36;18.03;;;13.03;;
10005;SDS011;5042;42.626;23.382;2023-02-10T06:29:04;18.53;;;12.63;;
10005;SDS011;5042;42.626;23.382;2023-02-10T06:31:31;13.37;;;9.00;;
10005;SDS011;5042;42.626;23.382;2023-02-10T06:33:58;9.10;;;8.17;;
10005;SDS011;5042;42.626;23.382;2023-02-10T06:36:24;10.23;;;6.67;;
10005;SDS011;5042;42.626;23.382;2023-02-10T06:38:51;7.00;;;5.37;;
10005;SDS011;5042;42.626;23.382;2023-02-10T06:41:18;5.87;;;4.00;;
10005;SDS011;5042;42.626;23.382;2023-02-10T06:43:45;9.23;;;5.53;;
10005;SDS011;5042;42.626;23.382;2023-02-10T06:46:14;11.67;;;6.83;;
10005;SDS011;5042;42.626;23.382;2023-02-10T06:48:40;6.30;;;5.70;;
10005;SDS011;5042;42.626;23.382;2023-02-10T06:51:07;11.27;;;6.37;;
10005;SDS011;5042;42.626;23.382;2023-02-10T06:53:34;7.93;;;5.40;;
10005;SDS011;5042;42.626;23.382;2023-02-10T06:56:01;5.37;;;4.87;;
10005;SDS011;5042;42.626;23.382;2023-02-10T06:58:28;8.67;;;6.13;;
10005;SDS011;5042;42.626;23.382;2023-02-10T07:00:55;9.77;;;6.83;;
10005;SDS011;5042;42.626;23.382;2023-02-10T07:03:25;10.00;;;7.33;;
10005;SDS011;5042;42.626;23.382;2023-02-10T07:05:51;9.57;;;7.10;;
10005;SDS011;5042;42.626;23.382;2023-02-10T07:08:18;7.73;;;5.67;;
10005;SDS011;5042;42.626;23.382;2023-02-10T07:10:45;9.93;;;5.87;;
10005;SDS011;5042;42.626;23.382;2023-02-10T07:13:12;8.47;;;5.90;;
10005;SDS011;5042;42.626;23.382;2023-02-10T07:15:38;9.63;;;8.33;;
10005;SDS011;5042;42.626;23.382;2023-02-10T07:18:05;16.97;;;6.20;;
10005;SDS011;5042;42.626;23.382;2023-02-10T07:20:33;11.93;;;6.20;;
10005;SDS011;5042;42.626;23.382;2023-02-10T07:23:00;13.93;;;6.93;;
10005;SDS011;5042;42.626;23.382;2023-02-10T07:25:27;5.63;;;4.93;;
10005;SDS011;5042;42.626;23.382;2023-02-10T07:27:53;8.70;;;5.80;;
10005;SDS011;5042;42.626;23.382;2023-02-10T07:30:20;8.47;;;5.93;;
10005;SDS011;5042;42.626;23.382;2023-02-10T07:32:47;7.40;;;4.20;;
10005;SDS011;5042;42.626;23.382;2023-02-10T07:35:14;8.17;;;5.23;;
10005;SDS011;5042;42.626;23.382;2023-02-10T07:37:42;8.77;;;6.27;;
10005;SDS011;5042;42.626;23.382;2023-02-10T07:40:09;7.83;;;4.27;;
10005;SDS011;5042;42.626;23.382;2023-02-10T07:42:36;6.57;;;5.03;;
10005;SDS011;5042;42.626;23.382;2023-02-10T07:45:03;7.67;;;5.07;;
10005;SDS011;5042;42.626;23.382;2023-02-10T07:47:30;8.57;;;6.00;;
10005;SDS011;5042;42.626;23.382;2023-02-10T07:49:57;8.33;;;5.47;;
10005;SDS011;5042;42.626;23.382;2023-02-10T07:52:24;10.23;;;6.23;;
10005;SDS011;5042;42.626;23.382;2023-02-10T07:54:52;8.77;;;5.80;;
10005;SDS011;5042;42.626;23.382;2023-02-10T07:57:20;19.53;;;7.13;;
10005;SDS011;5042;42.626;23.382;2023-02-10T07:59:47;5.00;;;4.53;;
10005;SDS011;5042;42.626;23.382;2023-02-10T08:02:13;7.23;;;5.40;;
10005;SDS011;5042;42.626;23.382;2023-02-10T08:04:40;13.37;;;4.37;;
10005;SDS011;5042;42.626;23.382;2023-02-10T08:07:07;7.70;;;4.77;;
10005;SDS011;5042;42.626;23.382;2023-02-10T08:09:35;8.73;;;6.10;;
10005;SDS011;5042;42.626;23.382;2023-02-10T08:12:04;5.90;;;3.83;;
10005;SDS011;5042;42.626;23.382;2023-02-10T08:14:31;6.97;;;5.33;;
10005;SDS011;5042;42.626;23.382;2023-02-10T08:16:58;4.00;;;3.67;;
10005;SDS011;5042;42.626;23.382;2023-02-10T08:19:24;9.50;;;6.33;;
10005;SDS011;5042;42.626;23.382;2023-02-10T08:21:51;11.33;;;6.73;;
10005;SDS011;5042;42.626;23.382;2023-02-10T08:24:18;11.17;;;6.07;;
10005;SDS011;5042;42.626;23.382;2023-02-10T08:26:44;12.90;;;7.40;;
10005;SDS011;5042;42.626;23.382;2023-02-10T08:29:13;7.43;;;5.63;;
10005;SDS011;5042;42.626;23.382;2023-02-10T08:31:39;10.47;;;6.20;;
10005;SDS011;5042;42.626;23.382;2023-02-10T08:34:11;10.43;;;6.77;;
10005;SDS011;5042;42.626;23.382;2023-02-10T08:36:40;8.53;;;5.63;;
10005;SDS011;5042;42.626;23.382;2023-02-10T08:39:07;10.27;;;5.97;;
10005;SDS011;5042;42.626;23.382;2023-02-10T08:41:34;11.37;;;7.13;;
10005;SDS011;5042;42.626;23.382;2023-02-10T08:44:01;7.73;;;5.57;;
10005;SDS011;5042;42.626;23.382;2023-02-10T08:46:29;11.63;;;7.43;;
10005;SDS011;5042;42.626;23.382;2023-02-10T08:48:56;10.30;;;6.70;;
10005;SDS011;5042;42.626;23.382;2023-02-10T08:51:26;13.73;;;7.83;;
10005;SDS011;5042;42.626;23.382;2023-02-10T08:53:53;11.70;;;7.80;;
10005;SDS011;5042;42.626;23.382;2023-02-10T08:56:21;14.83;;;8.23;;
10005;SDS011;5042;42.626;23.382;2023-02-10T08:58:48;16.57;;;8.70;;
10005;SDS011;5042;42.626;23.382;2023-02-10T09:01:16;13.23;;;7.17;;
10005;SDS011;5042;42.626;23.382;2023-02-10T09:03:46;16.17;;;7.50;;
10005;SDS011;5042;42.626;23.382;2023-02-10T09:06:14;12.70;;;8.00;;
10005;SDS011;5042;42.626;23.382;2023-02-10T09:08:42;15.53;;;9.07;;
10005;SDS011;5042;42.626;23.382;2023-02-10T09:11:08;15.53;;;9.73;;
10005;SDS011;5042;42.626;23.382;2023-02-10T09:13:35;18.17;;;11.43;;
10005;SDS011;5042;42.626;23.382;2023-02-10T09:16:02;15.13;;;9.30;;
10005;SDS011;5042;42.626;23.382;2023-02-10T09:18:29;16.13;;;9.73;;
10005;SDS011;5042;42.626;23.382;2023-02-10T09:20:57;14.77;;;10.20;;
10005;SDS011;5042;42.626;23.382;2023-02-10T09:23:25;17.17;;;10.57;;
10005;SDS011;5042;42.626;23.382;2023-02-10T09:25:52;16.37;;;9.93;;
10005;SDS011;5042;42.626;23.382;2023-02-10T09:28:19;14.80;;;9.80;;
10005;SDS011;5042;42.626;23.382;2023-02-10T09:30:46;16.30;;;10.13;;
10005;SDS011;5042;42.626;23.382;2023-02-10T09:33:13;14.23;;;8.80;;
10005;SDS011;5042;42.626;23.382;2023-02-10T09:35:40;16.43;;;8.80;;
10005;SDS011;5042;42.626;23.382;2023-02-10T09:38:08;9.47;;;7.10;;
10005;SDS011;5042;42.626;23.382;2023-02-10T09:40:37;13.30;;;7.80;;
10005;SDS011;5042;42.626;23.382;2023-02-10T09:43:17;14.57;;;5.07;;
10005;SDS011;5042;42.626;23.382;2023-02-10T09:45:57;9.37;;;6.00;;
10005;SDS011;5042;42.626;23.382;2023-02-10T09:48:29;8.27;;;5.37;;
10005;SDS011;5042;42.626;23.382;2023-02-10T09:51:03;10.33;;;6.50;;
10005;SDS011;5042;42.626;23.382;2023-02-10T09:53:43;9.53;;;5.53;;
10005;SDS011;5042;42.626;23.382;2023-02-10T09:56:12;6.97;;;5.40;;
10005;SDS011;5042;42.626;23.382;2023-02-10T09:58:44;9.37;;;6.30;;
10005;SDS011;5042;42.626;23.382;2023-02-10T10:01:15;12.20;;;7.50;;
10005;SDS011;5042;42.626;23.382;2023-02-10T10:03:46;10.20;;;6.37;;
10005;SDS011;5042;42.626;23.382;2023-02-10T10:06:18;7.57;;;5.17;;
10005;SDS011;5042;42.626;23.382;2023-02-10T10:08:53;8.30;;;6.27;;
10005;SDS011;5042;42.626;23.382;2023-02-10T10:11:26;10.20;;;7.23;;
10005;SDS011;5042;42.626;23.382;2023-02-10T10:14:02;6.17;;;4.77;;
10005;SDS011;5042;42.626;23.382;2023-02-10T10:19:28;10.53;;;6.87;;
10005;SDS011;5042;42.626;23.382;2023-02-10T10:22:10;13.67;;;6.40;;
10005;SDS011;5042;42.626;23.382;2023-02-10T10:24:55;8.93;;;6.03;;
10005;SDS011;5042;42.626;23.382;2023-02-10T10:27:35;9.60;;;5.67;;
10005;SDS011;5042;42.626;23.382;2023-02-10T10:30:16;11.13;;;7.53;;
10005;SDS011;5042;42.626;23.382;2023-02-10T10:32:45;11.23;;;7.83;;
10005;SDS011;5042;42.626;23.382;2023-02-10T10:35:14;12.10;;;8.20;;
10005;SDS011;5042;42.626;23.382;2023-02-10T10:37:43;13.47;;;7.47;;
10005;SDS011;5042;42.626;23.382;2023-02-10T10:40:14;13.20;;;8.03;;
10005;SDS011;5042;42.626;23.382;2023-02-10T10:42:45;11.00;;;7.63;;
10005;SDS011;5042;42.626;23.382;2023-02-10T10:45:16;10.53;;;7.23;;
10005;SDS011;5042;42.626;23.382;2023-02-10T10:47:46;13.57;;;8.17;;
10005;SDS011;5042;42.626;23.382;2023-02-10T10:50:17;17.17;;;9.20;;
10005;SDS011;5042;42.626;23.382;2023-02-10T10:52:46;9.80;;;7.70;;
10005;SDS011;5042;42.626;23.382;2023-02-10T10:55:19;12.87;;;8.57;;
10005;SDS011;5042;42.626;23.382;2023-02-10T10:57:49;12.50;;;8.87;;
10005;SDS011;5042;42.626;23.382;2023-02-10T11:00:18;11.50;;;7.70;;
10005;SDS011;5042;42.626;23.382;2023-02-10T11:02:54;12.27;;;8.03;;
10005;SDS011;5042;42.626;23.382;2023-02-10T11:05:25;14.60;;;8.73;;
10005;SDS011;5042;42.626;23.382;2023-02-10T11:07:54;18.53;;;8.90;;
10005;SDS011;5042;42.626;23.382;2023-02-10T11:10:25;12.73;;;9.17;;
10005;SDS011;5042;42.626;23.382;2023-02-10T11:12:56;15.07;;;9.10;;
10005;SDS011;5042;42.626;23.382;2023-02-10T11:15:28;12.90;;;8.60;;
10005;SDS011;5042;42.626;23.382;2023-02-10T11:17:59;13.13;;;8.80;;
10005;SDS011;5042;42.626;23.382;2023-02-10T11:20:28;16.60;;;10.00;;
10005;SDS011;5042;42.626;23.382;2023-02-10T11:22:56;12.60;;;8.60;;
10005;SDS011;5042;42.626;23.382;2023-02-10T11:25:28;11.03;;;7.97;;
10005;SDS011;5042;42.626;23.382;2023-02-10T11:27:57;12.37;;;7.73;;
10005;SDS011;5042;42.626;23.382;2023-02-10T11:30:25;15.30;;;8.97;;
10005;SDS011;5042;42.626;23.382;2023-02-10T11:32:53;18.90;;;9.40;;
10005;SDS011;5042;42.626;23.382;2023-02-10T11:35:20;13.73;;;9.03;;
10005;SDS011;5042;42.626;23.382;2023-02-10T11:37:51;15.20;;;8.50;;
10005;SDS011;5042;42.626;23.382;2023-02-10T11:40:20;12.27;;;7.80;;
10005;SDS011;5042;42.626;23.382;2023-02-10T11:42:52;17.23;;;10.00;;
10005;SDS011;5042;42.626;23.382;2023-02-10T11:45:21;9.43;;;7.00;;
10005;SDS011;5042;42.626;23.382;2023-02-10T11:47:59;12.97;;;8.87;;
10005;SDS011;5042;42.626;23.382;2023-02-10T11:50:28;16.13;;;9.30;;
10005;SDS011;5042;42.626;23.382;2023-02-10T11:52:56;14.97;;;8.20;;
10005;SDS011;5042;42.626;23.382;2023-02-10T11:55:25;13.57;;;8.37;;
10005;SDS011;5042;42.626;23.382;2023-02-10T11:58:07;14.17;;;9.03;;
10005;SDS011;5042;42.626;23.382;2023-02-10T12:01:06;16.50;;;9.23;;
10005;SDS011;5042;42.626;23.382;2023-02-10T12:03:41;8.83;;;5.37;;
10005;SDS011;5042;42.626;23.382;2023-02-10T12:06:25;18.13;;;8.77;;
10005;SDS011;5042;42.626;23.382;2023-02-10T12:09:01;12.73;;;8.80;;
10005;SDS011;5042;42.626;23.382;2023-02-10T12:11:35;15.27;;;9.57;;
10005;SDS011;5042;42.626;23.382;2023-02-10T12:14:25;15.00;;;9.20;;
10005;SDS011;5042;42.626;23.382;2023-02-10T12:17:05;10.97;;;8.37;;
10005;SDS011;5042;42.626;23.382;2023-02-10T12:19:50;13.80;;;7.60;;
10005;SDS011;5042;42.626;23.382;2023-02-10T12:22:29;13.50;;;8.23;;
10005;SDS011;5042;42.626;23.382;2023-02-10T12:25:08;13.50;;;8.33;;
10005;SDS011;5042;42.626;23.382;2023-02-10T12:27:48;13.60;;;8.20;;
10005;SDS011;5042;42.626;23.382;2023-02-10T12:30:28;13.30;;;7.33;;
10005;SDS011;5042;42.626;23.382;2023-02-10T12:33:06;11.33;;;7.60;;
10005;SDS011;5042;42.626;23.382;2023-02-10T12:35:48;17.37;;;8.87;;
10005;SDS011;5042;42.626;23.382;2023-02-10T12:38:32;18.07;;;9.00;;
10005;SDS011;5042;42.626;23.382;2023-02-10T12:41:11;12.70;;;8.43;;
10005;SDS011;5042;42.626;23.382;2023-02-10T12:43:49;8.33;;;6.37;;
10005;SDS011;5042;42.626;23.382;2023-02-10T12:46:29;13.40;;;8.57;;
10005;SDS011;5042;42.626;23.382;2023-02-10T12:49:09;14.23;;;8.77;;
10005;SDS011;5042;42.626;23.382;2023-02-10T12:52:05;17.20;;;10.07;;
10005;SDS011;5042;42.626;23.382;2023-02-10T12:54:36;14.10;;;8.73;;
10005;SDS011;5042;42.626;23.382;2023-02-10T12:57:10;14.20;;;9.40;;
10005;SDS011;5042;42.626;23.382;2023-02-10T12:59:47;7.93;;;6.47;;
10005;SDS011;5042;42.626;23.382;2023-02-10T13:02:20;11.87;;;8.60;;
10005;SDS011;5042;42.626;23.382;2023-02-10T13:04:53;12.67;;;8.90;;
10005;SDS011;5042;42.626;23.382;2023-02-10T13:07:28;12.73;;;9.20;;
10005;SDS011;5042;42.626;23.382;2023-02-10T13:10:08;9.03;;;8.07;;
10005;SDS011;5042;42.626;23.382;2023-02-10T13:12:44;14.57;;;8.70;;
10005;SDS011;5042;42.626;23.382;2023-02-10T13:15:14;14.93;;;10.20;;
10005;SDS011;5042;42.626;23.382;2023-02-10T13:17:46;12.93;;;8.50;;
10005;SDS011;5042;42.626;23.382;2023-02-10T13:23:11;13.30;;;9.57;;
10005;SDS011;5042;42.626;23.382;2023-02-10T13:25:51;13.10;;;8.10;;
10005;SDS011;5042;42.626;23.382;2023-02-10T13:28:39;15.00;;;7.70;;
10005;SDS011;5042;42.626;23.382;2023-02-10T13:31:15;15.40;;;8.80;;
10005;SDS011;5042;42.626;23.382;2023-02-10T13:33:53;11.70;;;8.50;;
10005;SDS011;5042;42.626;23.382;2023-02-10T13:36:30;12.70;;;9.57;;
10005;SDS011;5042;42.626;23.382;2023-02-10T13:39:02;16.43;;;9.50;;
10005;SDS011;5042;42.626;23.382;2023-02-10T13:41:33;15.00;;;10.43;;
10005;SDS011;5042;42.626;23.382;2023-02-10T13:44:25;15.63;;;9.50;;
10005;SDS011;5042;42.626;23.382;2023-02-10T13:46:55;17.73;;;10.70;;
10005;SDS011;5042;42.626;23.382;2023-02-10T13:49:26;17.03;;;9.47;;
10005;SDS011;5042;42.626;23.382;2023-02-10T13:52:00;16.80;;;10.93;;
10005;SDS011;5042;42.626;23.382;2023-02-10T13:54:33;14.77;;;9.57;;
10005;SDS011;5042;42.626;23.382;2023-02-10T13:57:01;18.67;;;11.20;;
10005;SDS011;5042;42.626;23.382;2023-02-10T13:59:38;19.47;;;10.60;;
10005;SDS011;5042;42.626;23.382;2023-02-10T14:02:15;14.00;;;9.30;;
10005;SDS011;5042;42.626;23.382;2023-02-10T14:04:48;16.80;;;9.90;;
10005;SDS011;5042;42.626;23.382;2023-02-10T14:07:31;24.23;;;10.83;;
10005;SDS011;5042;42.626;23.382;2023-02-10T14:10:00;20.13;;;10.73;;
10005;SDS011;5042;42.626;23.382;2023-02-10T14:12:30;14.40;;;8.83;;
10005;SDS011;5042;42.626;23.382;2023-02-10T14:15:20;17.60;;;10.00;;
10005;SDS011;5042;42.626;23.382;2023-02-10T14:17:53;18.33;;;10.93;;
10005;SDS011;5042;42.626;23.382;2023-02-10T14:20:25;19.67;;;10.60;;
10005;SDS011;5042;42.626;23.382;2023-02-10T14:22:56;16.90;;;10.57;;
10005;SDS011;5042;42.626;23.382;2023-02-10T14:25:29;17.00;;;9.97;;
10005;SDS011;5042;42.626;23.382;2023-02-10T14:27:59;20.17;;;11.37;;
10005;SDS011;5042;42.626;23.382;2023-02-10T14:30:32;19.43;;;11.60;;
10005;SDS011;5042;42.626;23.382;2023-02-10T14:33:15;19.57;;;10.50;;
10005;SDS011;5042;42.626;23.382;2023-02-10T14:35:51;18.57;;;11.23;;
10005;SDS011;5042;42.626;23.382;2023-02-10T14:38:20;20.33;;;12.77;;
10005;SDS011;5042;42.626;23.382;2023-02-10T14:40:48;20.23;;;12.53;;
10005;SDS011;5042;42.626;23.382;2023-02-10T14:43:18;23.47;;;14.00;;
10005;SDS011;5042;42.626;23.382;2023-02-10T14:45:49;22.60;;;12.97;;
10005;SDS011;5042;42.626;23.382;2023-02-10T14:48:16;21.57;;;14.07;;
10005;SDS011;5042;42.626;23.382;2023-02-10T14:50:57;23.57;;;13.60;;
10005;SDS011;5042;42.626;23.382;2023-02-10T14:53:26;24.03;;;13.80;;
10005;SDS011;5042;42.626;23.382;2023-02-10T14:55:53;26.50;;;14.87;;
10005;SDS011;5042;42.626;23.382;2023-02-10T14:58:21;28.07;;;16.13;;
10005;SDS011;5042;42.626;23.382;2023-02-10T15:00:58;25.20;;;15.97;;
10005;SDS011;5042;42.626;23.382;2023-02-10T15:03:30;27.93;;;15.70;;
10005;SDS011;5042;42.626;23.382;2023-02-10T15:05:59;27.10;;;17.03;;
10005;SDS011;5042;42.626;23.382;2023-02-10T15:08:29;30.00;;;16.00;;
10005;SDS011;5042;42.626;23.382;2023-02-10T15:11:03;25.83;;;15.10;;
10005;SDS011;5042;42.626;23.382;2023-02-10T15:13:33;25.43;;;14.47;;